createdAt,value
2023-01-17T00:00:21.978Z,5.26
2023-01-17T00:01:24.609Z,5.28
2023-01-17T00:02:27.444Z,5.28
2023-01-17T00:03:30.202Z,5.26
2023-01-17T00:04:33.495Z,5.26
2023-01-17T00:05:36.418Z,5.24
2023-01-17T00:06:39.101Z,5.24
2023-01-17T00:07:42.310Z,5.26
2023-01-17T00:08:45.028Z,5.26
2023-01-17T00:09:47.748Z,5.27
2023-01-17T00:10:50.487Z,5.26
2023-01-17T00:11:53.203Z,5.26
2023-01-17T00:12:55.868Z,5.25
2023-01-17T00:13:58.572Z,5.28
2023-01-17T00:15:01.306Z,5.26
2023-01-17T00:16:04.107Z,5.24
2023-01-17T00:17:06.864Z,5.22
2023-01-17T00:18:09.599Z,5.21
2023-01-17T00:19:12.262Z,5.18
2023-01-17T00:20:14.930Z,5.17
2023-01-17T00:21:17.622Z,5.18
2023-01-17T00:22:20.351Z,5.19
2023-01-17T00:23:23.013Z,5.22
2023-01-17T00:24:25.731Z,5.23
2023-01-17T00:25:28.443Z,5.24
2023-01-17T00:26:31.198Z,5.26
2023-01-17T00:27:33.851Z,5.26
2023-01-17T00:28:36.564Z,5.25
2023-01-17T00:29:39.241Z,5.25
2023-01-17T00:30:42.465Z,5.25
2023-01-17T00:31:45.294Z,5.25
2023-01-17T00:32:48.021Z,5.26
2023-01-17T00:33:50.667Z,5.29
2023-01-17T00:34:53.350Z,5.29
2023-01-17T00:35:56.031Z,5.3
2023-01-17T00:36:58.729Z,5.34
2023-01-17T00:38:01.719Z,5.36
2023-01-17T00:39:04.365Z,5.4
2023-01-17T00:40:07.679Z,5.43
2023-01-17T00:41:10.349Z,5.45
2023-01-17T00:42:13.097Z,5.48
2023-01-17T00:43:15.772Z,5.49
2023-01-17T00:44:19.261Z,5.51
2023-01-17T00:45:21.887Z,5.53
2023-01-17T00:46:24.727Z,5.53
2023-01-17T00:47:27.501Z,5.53
2023-01-17T00:48:30.790Z,5.55
2023-01-17T00:49:33.486Z,5.58
2023-01-17T00:50:36.163Z,5.59
2023-01-17T00:51:38.888Z,5.61
2023-01-17T00:52:41.592Z,5.63
2023-01-17T00:53:44.296Z,5.63
2023-01-17T00:54:47.008Z,5.66
2023-01-17T00:55:49.765Z,5.66
2023-01-17T00:56:52.467Z,5.68
2023-01-17T00:57:55.150Z,5.69
2023-01-17T00:58:57.866Z,5.7
2023-01-17T01:00:01.172Z,5.7
2023-01-17T01:01:04.305Z,5.7
2023-01-17T01:02:07.472Z,5.72
2023-01-17T01:03:10.332Z,5.72
2023-01-17T01:04:13.010Z,5.7
2023-01-17T01:05:16.508Z,5.7
2023-01-17T01:06:19.135Z,5.69
2023-01-17T01:07:21.810Z,5.7
2023-01-17T01:08:24.526Z,5.69
2023-01-17T01:09:27.206Z,5.7
2023-01-17T01:10:29.880Z,5.72
2023-01-17T01:11:32.593Z,5.76
2023-01-17T01:12:35.333Z,5.78
2023-01-17T01:13:38.022Z,5.79
2023-01-17T01:14:40.712Z,5.79
2023-01-17T01:15:43.394Z,5.8
2023-01-17T01:16:46.504Z,5.79
2023-01-17T01:17:49.151Z,5.79
2023-01-17T01:18:51.793Z,5.8
2023-01-17T01:19:54.499Z,5.81
2023-01-17T01:20:57.181Z,5.82
2023-01-17T01:21:59.867Z,5.83
2023-01-17T01:23:02.594Z,5.83
2023-01-17T01:24:05.255Z,5.83
2023-01-17T01:25:07.969Z,5.81
2023-01-17T01:26:10.645Z,5.79
2023-01-17T01:27:13.419Z,5.79
2023-01-17T01:28:16.114Z,5.79
2023-01-17T01:29:18.824Z,5.81
2023-01-17T01:30:21.527Z,5.83
2023-01-17T01:31:24.463Z,5.84
2023-01-17T01:32:27.188Z,5.85
2023-01-17T01:33:29.889Z,5.85
2023-01-17T01:34:32.555Z,5.85
2023-01-17T01:35:35.248Z,5.84
2023-01-17T01:36:37.953Z,5.86
2023-01-17T01:37:40.645Z,5.85
2023-01-17T01:38:43.322Z,5.83
2023-01-17T01:39:45.972Z,5.83
2023-01-17T01:40:48.930Z,5.81
2023-01-17T01:41:51.639Z,5.8
2023-01-17T01:42:54.400Z,5.81
2023-01-17T01:43:57.111Z,5.81
2023-01-17T01:44:59.827Z,5.81
2023-01-17T01:46:02.726Z,5.81
2023-01-17T01:47:05.459Z,5.81
2023-01-17T01:48:08.167Z,5.8
2023-01-17T01:49:10.858Z,5.8
2023-01-17T01:50:13.555Z,5.81
2023-01-17T01:51:16.289Z,5.81
2023-01-17T01:52:18.967Z,5.78
2023-01-17T01:53:21.677Z,5.77
2023-01-17T01:54:24.307Z,5.77
2023-01-17T01:55:27.584Z,5.78
2023-01-17T01:56:30.247Z,5.76
2023-01-17T01:57:32.916Z,5.78
2023-01-17T01:58:35.865Z,5.79
2023-01-17T01:59:38.574Z,5.79
2023-01-17T02:00:41.509Z,5.77
2023-01-17T02:01:44.710Z,5.77
2023-01-17T02:02:47.564Z,5.79
2023-01-17T02:03:50.399Z,5.81
2023-01-17T02:04:53.160Z,5.81
2023-01-17T02:05:55.868Z,5.81
2023-01-17T02:06:58.563Z,5.78
2023-01-17T02:08:01.861Z,5.77
2023-01-17T02:09:04.504Z,5.75
2023-01-17T02:10:07.228Z,5.76
2023-01-17T02:11:09.914Z,5.73
2023-01-17T02:12:12.655Z,5.69
2023-01-17T02:13:15.283Z,5.68
2023-01-17T02:14:17.998Z,5.68
2023-01-17T02:15:21.551Z,5.65
2023-01-17T02:16:24.408Z,5.62
2023-01-17T02:17:27.695Z,5.61
2023-01-17T02:18:30.310Z,5.61
2023-01-17T02:19:33.974Z,5.61
2023-01-17T02:20:36.558Z,5.6
2023-01-17T02:21:39.284Z,5.56
2023-01-17T02:22:41.957Z,5.52
2023-01-17T02:23:44.614Z,5.5
2023-01-17T02:24:47.307Z,5.47
2023-01-17T02:25:49.992Z,5.43
2023-01-17T02:26:52.710Z,5.39
2023-01-17T02:27:55.366Z,5.37
2023-01-17T02:28:58.078Z,5.36
2023-01-17T02:30:00.800Z,5.34
2023-01-17T02:31:03.485Z,5.35
2023-01-17T02:32:06.121Z,5.35
2023-01-17T02:33:09.436Z,5.34
2023-01-17T02:34:12.154Z,5.36
2023-01-17T02:35:14.896Z,5.37
2023-01-17T02:36:17.553Z,5.35
2023-01-17T02:37:20.232Z,5.37
2023-01-17T02:38:22.939Z,5.37
2023-01-17T02:39:25.608Z,5.37
2023-01-17T02:40:28.287Z,5.39
2023-01-17T02:41:30.981Z,5.41
2023-01-17T02:42:33.883Z,5.43
2023-01-17T02:43:36.566Z,5.46
2023-01-17T02:44:39.256Z,5.45
2023-01-17T02:45:42.055Z,5.45
2023-01-17T02:46:44.803Z,5.44
2023-01-17T02:47:47.549Z,5.44
2023-01-17T02:48:50.232Z,5.45
2023-01-17T02:49:52.877Z,5.44
2023-01-17T02:50:55.548Z,5.44
2023-01-17T02:51:58.180Z,5.47
2023-01-17T02:53:00.859Z,5.5
2023-01-17T02:54:03.511Z,5.5
2023-01-17T02:55:06.278Z,5.5
2023-01-17T02:56:08.948Z,5.48
2023-01-17T02:57:11.827Z,5.51
2023-01-17T02:58:14.578Z,5.53
2023-01-17T02:59:17.254Z,5.54
2023-01-17T03:00:20.013Z,5.54
2023-01-17T03:01:23.246Z,5.54
2023-01-17T03:02:26.278Z,5.54
2023-01-17T03:03:29.251Z,5.52
2023-01-17T03:04:31.958Z,5.5
2023-01-17T03:05:34.648Z,5.49
2023-01-17T03:06:37.310Z,5.47
2023-01-17T03:07:40.065Z,5.45
2023-01-17T03:08:43.118Z,5.45
2023-01-17T03:09:45.805Z,5.45
2023-01-17T03:10:48.458Z,5.48
2023-01-17T03:11:51.101Z,5.46
2023-01-17T03:12:54.371Z,5.47
2023-01-17T03:13:57.059Z,5.47
2023-01-17T03:14:59.749Z,5.48
2023-01-17T03:16:02.471Z,5.47
2023-01-17T03:17:05.201Z,5.47
2023-01-17T03:18:08.479Z,5.49
2023-01-17T03:19:11.206Z,5.5
2023-01-17T03:20:13.859Z,5.51
2023-01-17T03:21:16.501Z,5.52
2023-01-17T03:22:19.409Z,5.54
2023-01-17T03:23:22.061Z,5.53
2023-01-17T03:24:24.752Z,5.55
2023-01-17T03:25:27.468Z,5.57
2023-01-17T03:26:30.105Z,5.59
2023-01-17T03:27:32.810Z,5.61
2023-01-17T03:28:35.560Z,5.62
2023-01-17T03:29:38.256Z,5.61
2023-01-17T03:30:41.067Z,5.61
2023-01-17T03:31:43.770Z,5.61
2023-01-17T03:32:46.711Z,5.61
2023-01-17T03:33:49.466Z,5.61
2023-01-17T03:34:52.223Z,5.61
2023-01-17T03:35:54.913Z,5.63
2023-01-17T03:36:57.577Z,5.64
2023-01-17T03:38:00.244Z,5.65
2023-01-17T03:39:02.971Z,5.67
2023-01-17T03:40:06.270Z,5.68
2023-01-17T03:41:08.969Z,5.68
2023-01-17T03:42:11.643Z,5.68
2023-01-17T03:43:14.343Z,5.67
2023-01-17T03:44:17.055Z,5.67
2023-01-17T03:45:19.722Z,5.66
2023-01-17T03:46:22.458Z,5.65
2023-01-17T03:47:25.158Z,5.64
2023-01-17T03:48:27.871Z,5.61
2023-01-17T03:49:30.589Z,5.6
2023-01-17T03:50:33.315Z,5.62
2023-01-17T03:51:35.993Z,5.62
2023-01-17T03:52:38.633Z,5.62
2023-01-17T03:53:41.379Z,5.6
2023-01-17T03:54:44.085Z,5.57
2023-01-17T03:55:46.730Z,5.57
2023-01-17T03:56:49.568Z,5.56
2023-01-17T03:57:52.263Z,5.58
2023-01-17T03:58:54.985Z,5.56
2023-01-17T03:59:57.698Z,5.57
2023-01-17T04:01:00.653Z,5.56
2023-01-17T04:02:03.963Z,5.55
2023-01-17T04:03:06.747Z,5.56
2023-01-17T04:04:09.689Z,5.56
2023-01-17T04:05:12.608Z,5.57
2023-01-17T04:06:15.311Z,5.56
2023-01-17T04:07:17.982Z,5.56
2023-01-17T04:08:20.662Z,5.57
2023-01-17T04:09:23.372Z,5.59
2023-01-17T04:10:26.053Z,5.59
2023-01-17T04:11:28.741Z,5.59
2023-01-17T04:12:31.473Z,5.58
2023-01-17T04:13:34.146Z,5.59
2023-01-17T04:14:36.816Z,5.59
2023-01-17T04:15:39.473Z,5.59
2023-01-17T04:16:42.564Z,5.6
2023-01-17T04:17:45.401Z,5.61
2023-01-17T04:18:48.179Z,5.6
2023-01-17T04:19:50.933Z,5.6
2023-01-17T04:20:53.624Z,5.59
2023-01-17T04:21:56.598Z,5.6
2023-01-17T04:22:59.264Z,5.6
2023-01-17T04:24:01.942Z,5.62
2023-01-17T04:25:05.235Z,5.62
2023-01-17T04:26:08.115Z,5.63
2023-01-17T04:27:12.533Z,5.62
2023-01-17T04:28:15.115Z,5.63
2023-01-17T04:29:17.765Z,5.64
2023-01-17T04:30:20.498Z,5.65
2023-01-17T04:31:23.323Z,5.63
2023-01-17T04:32:26.053Z,5.65
2023-01-17T04:33:28.942Z,5.66
2023-01-17T04:34:31.841Z,5.66
2023-01-17T04:35:34.585Z,5.65
2023-01-17T04:36:37.319Z,5.64
2023-01-17T04:37:40.040Z,5.64
2023-01-17T04:38:42.953Z,5.65
2023-01-17T04:39:45.617Z,5.66
2023-01-17T04:40:48.337Z,5.67
2023-01-17T04:41:51.048Z,5.66
2023-01-17T04:42:53.712Z,5.67
2023-01-17T04:43:56.395Z,5.68
2023-01-17T04:44:59.090Z,5.69
2023-01-17T04:46:02.022Z,5.69
2023-01-17T04:47:04.768Z,5.69
2023-01-17T04:48:07.487Z,5.68
2023-01-17T04:49:11.352Z,5.68
2023-01-17T04:50:14.031Z,5.68
2023-01-17T04:51:16.783Z,5.68
2023-01-17T04:52:20.078Z,5.65
2023-01-17T04:53:22.716Z,5.64
2023-01-17T04:54:25.424Z,5.62
2023-01-17T04:55:28.146Z,5.62
2023-01-17T04:56:31.008Z,5.59
2023-01-17T04:57:33.883Z,5.59
2023-01-17T04:58:36.601Z,5.6
2023-01-17T04:59:39.220Z,5.59
2023-01-17T05:00:42.006Z,5.57
2023-01-17T05:01:44.803Z,5.58
2023-01-17T05:02:47.763Z,5.57
2023-01-17T05:03:50.690Z,5.55
2023-01-17T05:04:53.329Z,5.54
2023-01-17T05:05:56.025Z,5.53
2023-01-17T05:06:58.760Z,5.53
2023-01-17T05:08:01.479Z,5.52
2023-01-17T05:09:04.245Z,5.53
2023-01-17T05:10:06.925Z,5.52
2023-01-17T05:11:09.621Z,5.51
2023-01-17T05:12:12.272Z,5.52
2023-01-17T05:13:14.913Z,5.5
2023-01-17T05:14:18.652Z,5.51
2023-01-17T05:15:21.280Z,5.49
2023-01-17T05:16:23.963Z,5.5
2023-01-17T05:17:27.208Z,5.49
2023-01-17T05:18:30.111Z,5.48
2023-01-17T05:19:32.797Z,5.47
2023-01-17T05:20:35.503Z,5.48
2023-01-17T05:21:38.193Z,5.46
2023-01-17T05:22:40.898Z,5.46
2023-01-17T05:23:43.820Z,5.44
2023-01-17T05:24:46.548Z,5.44
2023-01-17T05:25:49.279Z,5.44
2023-01-17T05:26:51.978Z,5.45
2023-01-17T05:27:54.638Z,5.44
2023-01-17T05:28:57.382Z,5.39
2023-01-17T05:30:00.152Z,5.34
2023-01-17T05:31:02.959Z,5.32
2023-01-17T05:32:05.739Z,5.31
2023-01-17T05:33:08.487Z,5.32
2023-01-17T05:34:11.209Z,5.31
2023-01-17T05:35:13.940Z,5.32
2023-01-17T05:36:16.631Z,5.32
2023-01-17T05:37:19.294Z,5.33
2023-01-17T05:38:22.258Z,5.34
2023-01-17T05:39:25.204Z,5.32
2023-01-17T05:40:27.870Z,5.32
2023-01-17T05:41:30.533Z,5.32
2023-01-17T05:42:33.145Z,5.31
2023-01-17T05:43:35.808Z,5.31
2023-01-17T05:44:38.467Z,5.3
2023-01-17T05:45:41.150Z,5.29
2023-01-17T05:46:43.806Z,5.29
2023-01-17T05:47:46.518Z,5.29
2023-01-17T05:48:49.206Z,5.27
2023-01-17T05:49:51.897Z,5.25
2023-01-17T05:50:54.608Z,5.25
2023-01-17T05:51:57.287Z,5.23
2023-01-17T05:52:59.952Z,5.23
2023-01-17T05:54:02.699Z,5.22
2023-01-17T05:55:05.453Z,5.22
2023-01-17T05:56:08.172Z,5.22
2023-01-17T05:57:10.904Z,5.22
2023-01-17T05:58:13.587Z,5.24
2023-01-17T05:59:36.342Z,5.22
2023-01-17T06:00:37.651Z,5.22
2023-01-17T06:01:40.273Z,5.2
2023-01-17T06:02:43.094Z,5.18
2023-01-17T06:03:45.833Z,5.17
2023-01-17T06:04:48.709Z,5.15
2023-01-17T06:05:51.425Z,5.13
2023-01-17T06:06:54.100Z,5.12
2023-01-17T06:07:56.749Z,5.08
2023-01-17T06:08:59.570Z,5.05
2023-01-17T06:10:02.348Z,5.04
2023-01-17T06:11:05.035Z,5.01
2023-01-17T06:12:07.808Z,4.98
2023-01-17T06:13:10.505Z,4.91
2023-01-17T06:14:13.148Z,4.83
2023-01-17T06:15:15.829Z,4.75
2023-01-17T06:16:18.669Z,4.71
2023-01-17T06:17:21.363Z,4.64
2023-01-17T06:18:24.060Z,4.6
2023-01-17T06:19:26.727Z,4.54
2023-01-17T06:20:29.377Z,4.54
2023-01-17T06:21:32.068Z,4.57
2023-01-17T06:22:34.757Z,4.58
2023-01-17T06:23:37.440Z,4.57
2023-01-17T06:24:40.133Z,4.56
2023-01-17T06:25:42.848Z,4.56
2023-01-17T06:26:45.537Z,4.55
2023-01-17T06:27:48.267Z,4.55
2023-01-17T06:28:51.520Z,4.55
2023-01-17T06:29:54.182Z,4.54
2023-01-17T06:30:56.929Z,4.52
2023-01-17T06:32:01.998Z,4.52
2023-01-17T06:33:04.473Z,4.48
2023-01-17T06:34:07.705Z,4.48
2023-01-17T06:35:10.343Z,4.46
2023-01-17T06:36:13.020Z,4.44
2023-01-17T06:37:15.653Z,4.42
2023-01-17T06:38:18.333Z,4.4
2023-01-17T06:39:21.208Z,4.36
2023-01-17T06:40:23.886Z,4.35
2023-01-17T06:41:26.582Z,4.35
2023-01-17T06:42:29.293Z,4.33
2023-01-17T06:43:31.970Z,4.33
2023-01-17T06:44:34.630Z,4.31
2023-01-17T06:45:37.355Z,4.3
2023-01-17T06:46:40.338Z,4.29
2023-01-17T06:47:43.074Z,4.29
2023-01-17T06:48:45.833Z,4.27
2023-01-17T06:49:52.042Z,4.28
2023-01-17T06:50:54.494Z,4.27
2023-01-17T06:51:57.215Z,4.25
2023-01-17T06:52:59.926Z,4.19
2023-01-17T06:54:12.592Z,4.18
2023-01-17T06:55:14.866Z,4.17
2023-01-17T06:56:17.502Z,4.17
2023-01-17T06:57:20.223Z,4.16
2023-01-17T06:58:22.867Z,4.17
2023-01-17T06:59:26.145Z,4.17
2023-01-17T07:00:29.829Z,4.16
2023-01-17T07:01:33.025Z,4.14
2023-01-17T07:02:35.704Z,4.13
2023-01-17T07:03:38.493Z,4.13
2023-01-17T07:04:41.199Z,4.12
2023-01-17T07:05:43.825Z,4.11
2023-01-17T07:06:46.529Z,4.11
2023-01-17T07:07:49.200Z,4.12
2023-01-17T07:08:51.870Z,4.11
2023-01-17T07:09:54.541Z,4.09
2023-01-17T07:10:59.795Z,4.09
2023-01-17T07:12:02.376Z,4.1
2023-01-17T07:13:05.102Z,4.12
2023-01-17T07:14:07.798Z,4.13
2023-01-17T07:15:10.547Z,4.13
2023-01-17T07:16:13.537Z,4.13
2023-01-17T07:17:16.425Z,4.13
2023-01-17T07:18:19.130Z,4.11
2023-01-17T07:19:21.784Z,4.08
2023-01-17T07:20:25.038Z,4.1
2023-01-17T07:21:27.692Z,4.11
2023-01-17T07:22:30.352Z,4.1
2023-01-17T07:23:33.064Z,4.1
2023-01-17T07:24:35.695Z,4.1
2023-01-17T07:25:38.342Z,4.08
2023-01-17T07:26:41.103Z,4.08
2023-01-17T07:27:43.814Z,4.07
2023-01-17T07:28:46.523Z,4.06
2023-01-17T07:29:49.211Z,4.04
2023-01-17T07:30:51.909Z,4.06
2023-01-17T07:31:54.571Z,4.07
2023-01-17T07:32:57.197Z,4.06
2023-01-17T07:33:59.855Z,4.08
2023-01-17T07:35:02.786Z,4.09
2023-01-17T07:36:05.429Z,4.09
2023-01-17T07:37:08.101Z,4.07
2023-01-17T07:38:10.819Z,4.09
2023-01-17T07:39:13.471Z,4.11
2023-01-17T07:40:16.710Z,4.13
2023-01-17T07:41:19.388Z,4.16
2023-01-17T07:42:24.616Z,4.18
2023-01-17T07:43:27.111Z,4.19
2023-01-17T07:44:29.933Z,4.21
2023-01-17T07:45:32.659Z,4.22
2023-01-17T07:46:35.595Z,4.25
2023-01-17T07:47:38.268Z,4.26
2023-01-17T07:48:40.939Z,4.27
2023-01-17T07:49:43.702Z,4.21
2023-01-17T07:50:46.355Z,4.15
2023-01-17T07:51:49.018Z,4.08
2023-01-17T07:52:51.692Z,4.05
2023-01-17T07:53:54.392Z,4.05
2023-01-17T07:54:57.278Z,4.05
2023-01-17T07:55:59.962Z,4.05
2023-01-17T07:57:02.703Z,4.07
2023-01-17T07:58:05.399Z,4.08
2023-01-17T07:59:08.023Z,4.11
2023-01-17T08:00:10.989Z,4.12
2023-01-17T08:01:13.983Z,4.12
2023-01-17T08:02:16.832Z,4.12
2023-01-17T08:03:19.577Z,4.13
2023-01-17T08:04:22.256Z,4.14
2023-01-17T08:05:24.928Z,4.12
2023-01-17T08:06:27.694Z,4.11
2023-01-17T08:07:30.333Z,4.1
2023-01-17T08:08:32.990Z,4.11
2023-01-17T08:09:35.715Z,4.12
2023-01-17T08:10:38.380Z,4.12
2023-01-17T08:11:41.027Z,4.12
2023-01-17T08:12:43.665Z,4.11
2023-01-17T08:13:46.345Z,4.1
2023-01-17T08:14:49.012Z,4.11
2023-01-17T08:15:51.864Z,4.12
2023-01-17T08:16:54.518Z,4.12
2023-01-17T08:17:57.186Z,4.15
2023-01-17T08:18:59.900Z,4.16
2023-01-17T08:20:02.565Z,4.18
2023-01-17T08:21:05.249Z,4.2
2023-01-17T08:22:07.996Z,4.22
2023-01-17T08:23:10.646Z,4.23
2023-01-17T08:24:13.321Z,4.23
2023-01-17T08:25:15.996Z,4.24
2023-01-17T08:26:18.717Z,4.27
2023-01-17T08:27:21.421Z,4.29
2023-01-17T08:28:24.092Z,4.32
2023-01-17T08:29:26.762Z,4.35
2023-01-17T08:30:29.464Z,4.38
2023-01-17T08:31:32.466Z,4.4
2023-01-17T08:32:35.195Z,4.41
2023-01-17T08:33:38.044Z,4.47
2023-01-17T08:34:41.172Z,4.51
2023-01-17T08:35:43.816Z,4.52
2023-01-17T08:36:46.495Z,4.52
2023-01-17T08:37:49.187Z,4.54
2023-01-17T08:38:51.861Z,4.57
2023-01-17T08:39:54.526Z,4.54
2023-01-17T08:40:57.197Z,4.58
2023-01-17T08:41:59.899Z,4.62
2023-01-17T08:43:02.594Z,4.67
2023-01-17T08:44:05.252Z,4.65
2023-01-17T08:45:07.887Z,4.7
2023-01-17T08:46:10.799Z,4.78
2023-01-17T08:47:13.685Z,4.82
2023-01-17T08:48:16.435Z,4.82
2023-01-17T08:49:19.166Z,4.8
2023-01-17T08:50:21.862Z,4.74
2023-01-17T08:51:24.561Z,4.73
2023-01-17T08:52:27.239Z,4.72
2023-01-17T08:53:29.960Z,4.74
2023-01-17T08:54:32.589Z,4.76
2023-01-17T08:55:35.538Z,4.84
2023-01-17T08:56:38.184Z,5
2023-01-17T08:57:40.894Z,5.15
2023-01-17T08:58:43.564Z,5.3
2023-01-17T08:59:46.311Z,5.39
2023-01-17T09:00:49.296Z,5.53
2023-01-17T09:01:53.002Z,5.64
2023-01-17T09:02:55.884Z,5.72
2023-01-17T09:03:58.786Z,5.82
2023-01-17T09:05:01.599Z,5.9
2023-01-17T09:06:04.298Z,5.98
2023-01-17T09:07:07.221Z,6.06
2023-01-17T09:08:09.904Z,6.15
2023-01-17T09:09:12.608Z,6.22
2023-01-17T09:10:15.346Z,6.28
2023-01-17T09:11:18.095Z,6.34
2023-01-17T09:12:21.379Z,6.4
2023-01-17T09:13:24.038Z,6.45
2023-01-17T09:14:26.767Z,6.47
2023-01-17T09:15:29.477Z,6.48
2023-01-17T09:16:32.407Z,6.51
2023-01-17T09:17:35.194Z,6.55
2023-01-17T09:18:47.931Z,6.61
2023-01-17T09:19:50.288Z,6.67
2023-01-17T09:20:53.013Z,6.72
2023-01-17T09:21:55.696Z,6.8
2023-01-17T09:22:58.430Z,6.9
2023-01-17T09:24:01.089Z,6.99
2023-01-17T09:25:03.894Z,7.12
2023-01-17T09:26:06.610Z,7.24
2023-01-17T09:27:09.312Z,7.37
2023-01-17T09:28:12.007Z,7.49
2023-01-17T09:29:14.681Z,7.66
2023-01-17T09:30:17.458Z,7.82
2023-01-17T09:31:20.147Z,7.99
2023-01-17T09:32:22.880Z,8.2
2023-01-17T09:33:25.571Z,8.46
2023-01-17T09:34:28.365Z,8.74
2023-01-17T09:35:31.304Z,9.06
2023-01-17T09:36:34.588Z,9.41
2023-01-17T09:37:37.309Z,9.73
2023-01-17T09:38:40.031Z,10.05
2023-01-17T09:39:42.786Z,10.3
2023-01-17T09:40:45.513Z,10.55
2023-01-17T09:41:48.267Z,10.76
2023-01-17T09:42:50.997Z,10.89
2023-01-17T09:43:53.741Z,10.91
2023-01-17T09:44:56.466Z,10.85
2023-01-17T09:45:59.960Z,10.91
2023-01-17T09:47:03.457Z,11
2023-01-17T09:48:06.195Z,10.99
2023-01-17T09:49:09.100Z,10.92
2023-01-17T09:50:12.433Z,10.79
2023-01-17T09:51:15.169Z,10.78
2023-01-17T09:52:17.920Z,10.73
2023-01-17T09:53:20.642Z,10.74
2023-01-17T09:54:23.412Z,10.73
2023-01-17T09:55:26.089Z,10.72
2023-01-17T09:56:28.847Z,10.74
2023-01-17T09:57:31.484Z,10.79
2023-01-17T09:58:34.192Z,10.83
2023-01-17T09:59:36.901Z,10.8
2023-01-17T10:00:39.621Z,10.66
2023-01-17T10:01:43.057Z,10.54
2023-01-17T10:02:46.330Z,10.35
2023-01-17T10:03:49.773Z,10.14
2023-01-17T10:04:53.182Z,9.93
2023-01-17T10:05:55.974Z,9.73
2023-01-17T10:06:58.875Z,9.52
2023-01-17T10:08:04.943Z,9.27
2023-01-17T10:09:07.399Z,9.09
2023-01-17T10:10:10.102Z,8.89
2023-01-17T10:11:12.836Z,8.72
2023-01-17T10:12:15.574Z,8.57
2023-01-17T10:13:18.229Z,8.42
2023-01-17T10:14:20.923Z,8.31
2023-01-17T10:15:24.011Z,8.18
2023-01-17T10:16:26.787Z,8.05
2023-01-17T10:17:29.493Z,7.93
2023-01-17T10:18:32.716Z,7.81
2023-01-17T10:19:35.359Z,7.72
2023-01-17T10:20:38.065Z,7.61
2023-01-17T10:21:40.907Z,7.45
2023-01-17T10:22:43.585Z,7.37
2023-01-17T10:23:46.272Z,7.3
2023-01-17T10:24:48.954Z,7.24
2023-01-17T10:25:51.614Z,7.22
2023-01-17T10:26:54.298Z,7.17
2023-01-17T10:27:57.560Z,7.11
2023-01-17T10:29:00.448Z,7.1
2023-01-17T10:30:03.170Z,7.08
2023-01-17T10:31:06.038Z,7.06
2023-01-17T10:32:08.820Z,7.03
2023-01-17T10:33:11.508Z,6.97
2023-01-17T10:34:14.185Z,6.96
2023-01-17T10:35:17.406Z,6.95
2023-01-17T10:36:20.090Z,6.93
2023-01-17T10:37:22.828Z,6.94
2023-01-17T10:38:25.596Z,6.94
2023-01-17T10:39:28.314Z,6.94
2023-01-17T10:40:31.025Z,6.94
2023-01-17T10:41:33.725Z,6.93
2023-01-17T10:42:36.396Z,6.94
2023-01-17T10:43:39.137Z,6.95
2023-01-17T10:44:41.855Z,6.97
2023-01-17T10:45:44.690Z,7.03
2023-01-17T10:46:47.416Z,7.07
2023-01-17T10:47:50.143Z,7.14
2023-01-17T10:48:52.901Z,7.2
2023-01-17T10:49:55.607Z,7.22
2023-01-17T10:50:58.329Z,7.23
2023-01-17T10:52:01.114Z,7.26
2023-01-17T10:53:05.352Z,7.28
2023-01-17T10:54:07.970Z,7.31
2023-01-17T10:55:10.735Z,7.35
2023-01-17T10:56:14.040Z,7.39
2023-01-17T10:57:16.777Z,7.44
2023-01-17T10:58:19.574Z,7.53
2023-01-17T10:59:22.243Z,7.65
2023-01-17T11:00:24.961Z,7.73
2023-01-17T11:01:28.074Z,7.82
2023-01-17T11:02:31.313Z,7.87
2023-01-17T11:03:34.192Z,7.91
2023-01-17T11:04:36.918Z,7.9
2023-01-17T11:05:39.765Z,7.89
2023-01-17T11:06:58.011Z,7.9
2023-01-17T11:08:00.642Z,7.85
2023-01-17T11:09:03.345Z,7.78
2023-01-17T11:10:06.105Z,7.71
2023-01-17T11:11:09.079Z,7.67
2023-01-17T11:12:11.747Z,7.65
2023-01-17T11:13:14.462Z,7.59
2023-01-17T11:14:17.138Z,7.58
2023-01-17T11:15:19.884Z,7.61
2023-01-17T11:16:22.618Z,7.6
2023-01-17T11:17:25.329Z,7.6
2023-01-17T11:18:28.026Z,7.58
2023-01-17T11:19:30.700Z,7.6
2023-01-17T11:20:33.611Z,7.6
2023-01-17T11:21:36.282Z,7.61
2023-01-17T11:22:39.040Z,7.63
2023-01-17T11:23:41.737Z,7.65
2023-01-17T11:24:44.791Z,7.67
2023-01-17T11:25:47.483Z,7.65
2023-01-17T11:26:51.014Z,7.63
2023-01-17T11:27:53.737Z,7.63
2023-01-17T11:28:56.507Z,7.62
2023-01-17T11:29:59.247Z,7.63
2023-01-17T11:31:02.048Z,7.64
2023-01-17T11:32:07.379Z,7.63
2023-01-17T11:33:09.942Z,7.59
2023-01-17T11:34:12.660Z,7.57
2023-01-17T11:35:15.339Z,7.56
2023-01-17T11:36:18.068Z,7.51
2023-01-17T11:37:20.816Z,7.46
2023-01-17T11:38:23.501Z,7.45
2023-01-17T11:39:26.206Z,7.43
2023-01-17T11:40:28.966Z,7.43
2023-01-17T11:41:31.688Z,7.43
2023-01-17T11:42:35.580Z,7.46
2023-01-17T11:43:38.231Z,7.47
2023-01-17T11:44:40.874Z,7.51
2023-01-17T11:45:43.581Z,7.54
2023-01-17T11:46:46.253Z,7.57
2023-01-17T11:47:49.009Z,7.58
2023-01-17T11:48:52.469Z,7.56
2023-01-17T11:49:58.179Z,7.47
2023-01-17T11:51:00.836Z,7.42
2023-01-17T11:52:03.560Z,7.39
2023-01-17T11:53:06.243Z,7.38
2023-01-17T11:54:08.957Z,7.35
2023-01-17T11:55:11.651Z,7.32
2023-01-17T11:56:14.425Z,7.34
2023-01-17T11:57:17.141Z,7.34
2023-01-17T11:58:29.913Z,7.3
2023-01-17T11:59:32.253Z,7.29
2023-01-17T12:00:34.922Z,7.33
2023-01-17T12:01:37.608Z,7.35
2023-01-17T12:02:40.305Z,7.38
2023-01-17T12:03:43.213Z,7.41
2023-01-17T12:04:46.065Z,7.39
2023-01-17T12:05:48.808Z,7.4
2023-01-17T12:06:58.657Z,7.43
2023-01-17T12:08:01.242Z,7.45
2023-01-17T12:09:04.533Z,7.46
2023-01-17T12:10:07.255Z,7.48
2023-01-17T12:11:09.956Z,7.47
2023-01-17T12:12:13.295Z,7.45
2023-01-17T12:13:16.007Z,7.44
2023-01-17T12:14:18.749Z,7.44
2023-01-17T12:15:21.466Z,7.47
2023-01-17T12:16:24.138Z,7.49
2023-01-17T12:17:26.803Z,7.53
2023-01-17T12:18:29.515Z,7.56
2023-01-17T12:19:32.263Z,7.56
2023-01-17T12:20:35.020Z,7.57
2023-01-17T12:21:37.727Z,7.58
2023-01-17T12:22:40.439Z,7.54
2023-01-17T12:23:43.165Z,7.54
2023-01-17T12:24:45.857Z,7.53
2023-01-17T12:25:48.573Z,7.52
2023-01-17T12:26:51.320Z,7.47
2023-01-17T12:27:54.050Z,7.45
2023-01-17T12:28:56.780Z,7.47
2023-01-17T12:29:59.495Z,7.47
2023-01-17T12:31:02.434Z,7.48
2023-01-17T12:32:05.250Z,7.47
2023-01-17T12:33:08.005Z,7.48
2023-01-17T12:34:10.720Z,7.51
2023-01-17T12:35:13.607Z,7.52
2023-01-17T12:36:16.424Z,7.49
2023-01-17T12:37:19.133Z,7.52
2023-01-17T12:38:33.018Z,7.53
2023-01-17T12:39:35.920Z,7.54
2023-01-17T12:40:38.563Z,7.54
2023-01-17T12:41:41.268Z,7.54
2023-01-17T12:42:43.982Z,7.53
2023-01-17T12:43:46.706Z,7.5
2023-01-17T12:44:49.471Z,7.52
2023-01-17T12:45:52.197Z,7.53
2023-01-17T12:46:55.135Z,7.55
2023-01-17T12:47:57.881Z,7.57
2023-01-17T12:49:00.532Z,7.55
2023-01-17T12:50:03.313Z,7.49
2023-01-17T12:51:05.975Z,7.48
2023-01-17T12:52:08.678Z,7.47
2023-01-17T12:53:11.385Z,7.48
2023-01-17T12:54:14.330Z,7.49
2023-01-17T12:55:17.017Z,7.49
2023-01-17T12:56:19.698Z,7.52
2023-01-17T12:57:22.398Z,7.56
2023-01-17T12:58:25.089Z,7.62
2023-01-17T12:59:27.890Z,7.67
2023-01-17T13:00:30.707Z,7.7
2023-01-17T13:01:33.828Z,7.74
2023-01-17T13:02:36.719Z,7.74
2023-01-17T13:03:39.401Z,7.77
2023-01-17T13:04:58.261Z,7.81
2023-01-17T13:06:01.142Z,7.78
2023-01-17T13:07:03.875Z,7.72
2023-01-17T13:08:06.611Z,7.73
2023-01-17T13:09:09.295Z,7.7
2023-01-17T13:10:12.249Z,7.67
2023-01-17T13:11:14.985Z,7.65
2023-01-17T13:12:17.660Z,7.65
2023-01-17T13:13:20.575Z,7.66
2023-01-17T13:14:23.225Z,7.67
2023-01-17T13:15:26.035Z,7.64
2023-01-17T13:16:29.431Z,7.63
2023-01-17T13:17:32.230Z,7.63
2023-01-17T13:18:34.902Z,7.64
2023-01-17T13:19:37.579Z,7.62
2023-01-17T13:20:40.276Z,7.62
2023-01-17T13:21:43.019Z,7.62
2023-01-17T13:22:45.746Z,7.61
2023-01-17T13:23:48.456Z,7.6
2023-01-17T13:24:51.173Z,7.57
2023-01-17T13:25:53.860Z,7.56
2023-01-17T13:26:56.591Z,7.55
2023-01-17T13:27:59.821Z,7.55
2023-01-17T13:29:03.852Z,7.55
2023-01-17T13:30:06.431Z,7.53
2023-01-17T13:31:09.330Z,7.53
2023-01-17T13:32:12.060Z,7.52
2023-01-17T13:33:14.786Z,7.51
2023-01-17T13:34:17.525Z,7.52
2023-01-17T13:35:20.220Z,7.53
2023-01-17T13:36:22.968Z,7.54
2023-01-17T13:37:25.701Z,7.54
2023-01-17T13:38:28.440Z,7.53
2023-01-17T13:39:31.087Z,7.54
2023-01-17T13:40:33.849Z,7.53
2023-01-17T13:41:36.524Z,7.54
2023-01-17T13:42:39.254Z,7.56
2023-01-17T13:43:41.965Z,7.58
2023-01-17T13:44:44.618Z,7.59
2023-01-17T13:45:47.566Z,7.57
2023-01-17T13:46:50.335Z,7.57
2023-01-17T13:47:53.031Z,7.57
2023-01-17T13:48:55.722Z,7.57
2023-01-17T13:49:58.397Z,7.58
2023-01-17T13:51:01.154Z,7.52
2023-01-17T13:52:03.895Z,7.49
2023-01-17T13:53:06.578Z,7.5
2023-01-17T13:54:09.288Z,7.53
2023-01-17T13:55:11.938Z,7.55
2023-01-17T13:56:14.631Z,7.56
2023-01-17T13:57:17.344Z,7.53
2023-01-17T13:58:19.996Z,7.51
2023-01-17T13:59:22.717Z,7.5